sensor_id;sensor_type;location;lat;lon;timestamp;P1;durP1;ratioP1;P2;durP2;ratioP2
69463;SDS011;56665;41.106;16.688;2024-02-04T00:02:46;21.58;;;9.70;;
69463;SDS011;56665;41.106;16.688;2024-02-04T00:05:50;20.00;;;8.38;;
69463;SDS011;56665;41.106;16.688;2024-02-04T00:08:54;15.27;;;7.78;;
69463;SDS011;56665;41.106;16.688;2024-02-04T00:11:57;16.37;;;7.87;;
69463;SDS011;56665;41.106;16.688;2024-02-04T00:15:02;18.02;;;7.38;;
69463;SDS011;56665;41.106;16.688;2024-02-04T00:18:07;19.27;;;7.95;;
69463;SDS011;56665;41.106;16.688;2024-02-04T00:21:11;16.27;;;7.43;;
69463;SDS011;56665;41.106;16.688;2024-02-04T00:24:15;18.92;;;7.75;;
69463;SDS011;56665;41.106;16.688;2024-02-04T00:27:19;18.10;;;7.97;;
69463;SDS011;56665;41.106;16.688;2024-02-04T00:30:22;18.98;;;8.07;;
69463;SDS011;56665;41.106;16.688;2024-02-04T00:33:29;16.58;;;7.93;;
69463;SDS011;56665;41.106;16.688;2024-02-04T00:36:33;19.95;;;8.38;;
69463;SDS011;56665;41.106;16.688;2024-02-04T00:39:37;17.02;;;8.40;;
69463;SDS011;56665;41.106;16.688;2024-02-04T00:42:40;16.60;;;8.03;;
69463;SDS011;56665;41.106;16.688;2024-02-04T00:45:44;20.77;;;8.13;;
69463;SDS011;56665;41.106;16.688;2024-02-04T00:48:48;17.55;;;8.60;;
69463;SDS011;56665;41.106;16.688;2024-02-04T00:51:52;19.08;;;8.07;;
69463;SDS011;56665;41.106;16.688;2024-02-04T00:54:56;20.55;;;9.18;;
69463;SDS011;56665;41.106;16.688;2024-02-04T00:58:00;22.70;;;9.23;;
69463;SDS011;56665;41.106;16.688;2024-02-04T01:01:05;20.20;;;9.85;;
69463;SDS011;56665;41.106;16.688;2024-02-04T01:04:09;19.02;;;8.63;;
69463;SDS011;56665;41.106;16.688;2024-02-04T01:07:12;23.00;;;8.90;;
69463;SDS011;56665;41.106;16.688;2024-02-04T01:10:16;21.27;;;9.43;;
69463;SDS011;56665;41.106;16.688;2024-02-04T01:13:20;24.37;;;9.53;;
69463;SDS011;56665;41.106;16.688;2024-02-04T01:16:23;21.50;;;9.20;;
69463;SDS011;56665;41.106;16.688;2024-02-04T01:19:27;22.65;;;9.10;;
69463;SDS011;56665;41.106;16.688;2024-02-04T01:22:31;23.58;;;9.52;;
69463;SDS011;56665;41.106;16.688;2024-02-04T01:25:34;25.63;;;9.80;;
69463;SDS011;56665;41.106;16.688;2024-02-04T01:28:38;22.33;;;9.80;;
69463;SDS011;56665;41.106;16.688;2024-02-04T01:31:42;28.55;;;10.52;;
69463;SDS011;56665;41.106;16.688;2024-02-04T01:34:46;24.40;;;10.65;;
69463;SDS011;56665;41.106;16.688;2024-02-04T01:37:50;27.13;;;10.35;;
69463;SDS011;56665;41.106;16.688;2024-02-04T01:40:53;28.90;;;11.68;;
69463;SDS011;56665;41.106;16.688;2024-02-04T01:43:57;27.83;;;11.13;;
69463;SDS011;56665;41.106;16.688;2024-02-04T01:47:01;26.00;;;11.63;;
69463;SDS011;56665;41.106;16.688;2024-02-04T01:50:05;31.38;;;12.45;;
69463;SDS011;56665;41.106;16.688;2024-02-04T01:53:09;30.40;;;12.60;;
69463;SDS011;56665;41.106;16.688;2024-02-04T01:56:14;30.08;;;12.88;;
69463;SDS011;56665;41.106;16.688;2024-02-04T01:59:18;35.33;;;12.90;;
69463;SDS011;56665;41.106;16.688;2024-02-04T02:02:24;36.22;;;13.55;;
69463;SDS011;56665;41.106;16.688;2024-02-04T02:05:29;37.85;;;13.70;;
69463;SDS011;56665;41.106;16.688;2024-02-04T02:08:33;40.42;;;14.88;;
69463;SDS011;56665;41.106;16.688;2024-02-04T02:11:41;39.10;;;15.13;;
69463;SDS011;56665;41.106;16.688;2024-02-04T02:14:50;42.53;;;15.37;;
69463;SDS011;56665;41.106;16.688;2024-02-04T02:18:02;39.95;;;15.88;;
69463;SDS011;56665;41.106;16.688;2024-02-04T02:24:45;43.47;;;15.13;;
69463;SDS011;56665;41.106;16.688;2024-02-04T02:27:50;43.75;;;15.18;;
69463;SDS011;56665;41.106;16.688;2024-02-04T02:30:55;42.80;;;15.37;;
69463;SDS011;56665;41.106;16.688;2024-02-04T02:33:58;37.60;;;14.80;;
69463;SDS011;56665;41.106;16.688;2024-02-04T02:40:12;41.70;;;15.25;;
69463;SDS011;56665;41.106;16.688;2024-02-04T02:43:21;45.10;;;16.70;;
69463;SDS011;56665;41.106;16.688;2024-02-04T02:46:25;36.23;;;15.07;;
69463;SDS011;56665;41.106;16.688;2024-02-04T02:49:29;46.78;;;16.27;;
69463;SDS011;56665;41.106;16.688;2024-02-04T02:52:33;38.40;;;15.00;;
69463;SDS011;56665;41.106;16.688;2024-02-04T02:55:37;38.75;;;14.90;;
69463;SDS011;56665;41.106;16.688;2024-02-04T02:58:41;37.35;;;14.35;;
69463;SDS011;56665;41.106;16.688;2024-02-04T03:01:44;38.83;;;14.47;;
69463;SDS011;56665;41.106;16.688;2024-02-04T03:04:48;42.35;;;16.77;;
69463;SDS011;56665;41.106;16.688;2024-02-04T03:07:52;41.78;;;15.48;;
69463;SDS011;56665;41.106;16.688;2024-02-04T03:10:56;39.67;;;15.27;;
69463;SDS011;56665;41.106;16.688;2024-02-04T03:14:00;39.70;;;15.05;;
69463;SDS011;56665;41.106;16.688;2024-02-04T03:17:04;37.17;;;14.53;;
69463;SDS011;56665;41.106;16.688;2024-02-04T03:20:08;39.58;;;15.27;;
69463;SDS011;56665;41.106;16.688;2024-02-04T03:23:13;39.08;;;15.25;;
69463;SDS011;56665;41.106;16.688;2024-02-04T03:26:17;43.45;;;14.80;;
69463;SDS011;56665;41.106;16.688;2024-02-04T03:29:25;43.40;;;15.10;;
69463;SDS011;56665;41.106;16.688;2024-02-04T03:32:28;37.37;;;14.27;;
69463;SDS011;56665;41.106;16.688;2024-02-04T03:35:36;42.38;;;15.20;;
69463;SDS011;56665;41.106;16.688;2024-02-04T03:38:41;39.45;;;14.95;;
69463;SDS011;56665;41.106;16.688;2024-02-04T03:41:45;37.50;;;14.10;;
69463;SDS011;56665;41.106;16.688;2024-02-04T03:44:49;35.35;;;13.70;;
69463;SDS011;56665;41.106;16.688;2024-02-04T03:47:52;41.03;;;14.23;;
69463;SDS011;56665;41.106;16.688;2024-02-04T03:50:56;41.40;;;14.30;;
69463;SDS011;56665;41.106;16.688;2024-02-04T03:54:00;38.63;;;14.00;;
69463;SDS011;56665;41.106;16.688;2024-02-04T03:57:03;33.28;;;13.65;;
69463;SDS011;56665;41.106;16.688;2024-02-04T04:00:07;29.98;;;12.90;;
69463;SDS011;56665;41.106;16.688;2024-02-04T04:03:15;31.07;;;12.67;;
69463;SDS011;56665;41.106;16.688;2024-02-04T04:06:18;31.30;;;12.38;;
69463;SDS011;56665;41.106;16.688;2024-02-04T04:09:22;27.98;;;11.48;;
69463;SDS011;56665;41.106;16.688;2024-02-04T04:12:26;26.45;;;10.50;;
69463;SDS011;56665;41.106;16.688;2024-02-04T04:15:30;28.35;;;11.20;;
69463;SDS011;56665;41.106;16.688;2024-02-04T04:18:33;28.53;;;10.20;;
69463;SDS011;56665;41.106;16.688;2024-02-04T04:21:37;29.95;;;11.60;;
69463;SDS011;56665;41.106;16.688;2024-02-04T04:24:41;24.10;;;10.90;;
69463;SDS011;56665;41.106;16.688;2024-02-04T04:27:45;26.70;;;10.30;;
69463;SDS011;56665;41.106;16.688;2024-02-04T04:30:50;27.10;;;11.40;;
69463;SDS011;56665;41.106;16.688;2024-02-04T04:33:54;29.00;;;12.63;;
69463;SDS011;56665;41.106;16.688;2024-02-04T04:36:58;32.22;;;12.15;;
69463;SDS011;56665;41.106;16.688;2024-02-04T04:40:01;32.17;;;12.77;;
69463;SDS011;56665;41.106;16.688;2024-02-04T04:43:06;35.25;;;12.95;;
69463;SDS011;56665;41.106;16.688;2024-02-04T04:46:09;36.17;;;14.70;;
69463;SDS011;56665;41.106;16.688;2024-02-04T04:49:13;34.53;;;14.07;;
69463;SDS011;56665;41.106;16.688;2024-02-04T04:52:18;34.28;;;14.55;;
69463;SDS011;56665;41.106;16.688;2024-02-04T04:55:22;33.63;;;13.70;;
69463;SDS011;56665;41.106;16.688;2024-02-04T04:58:25;30.33;;;11.70;;
69463;SDS011;56665;41.106;16.688;2024-02-04T05:01:29;29.33;;;12.95;;
69463;SDS011;56665;41.106;16.688;2024-02-04T05:04:33;38.77;;;13.57;;
69463;SDS011;56665;41.106;16.688;2024-02-04T05:07:37;32.90;;;12.70;;
69463;SDS011;56665;41.106;16.688;2024-02-04T05:10:41;30.38;;;12.40;;
69463;SDS011;56665;41.106;16.688;2024-02-04T05:13:45;28.23;;;11.23;;
69463;SDS011;56665;41.106;16.688;2024-02-04T05:16:48;27.73;;;11.70;;
69463;SDS011;56665;41.106;16.688;2024-02-04T05:19:52;27.73;;;11.27;;
69463;SDS011;56665;41.106;16.688;2024-02-04T05:22:56;30.85;;;12.45;;
69463;SDS011;56665;41.106;16.688;2024-02-04T05:26:04;29.33;;;12.38;;
69463;SDS011;56665;41.106;16.688;2024-02-04T05:29:08;27.90;;;11.40;;
69463;SDS011;56665;41.106;16.688;2024-02-04T05:32:12;27.52;;;12.88;;
69463;SDS011;56665;41.106;16.688;2024-02-04T05:35:16;34.17;;;12.80;;
69463;SDS011;56665;41.106;16.688;2024-02-04T05:38:21;32.42;;;11.85;;
69463;SDS011;56665;41.106;16.688;2024-02-04T05:41:25;28.42;;;12.40;;
69463;SDS011;56665;41.106;16.688;2024-02-04T05:44:29;30.40;;;13.85;;
69463;SDS011;56665;41.106;16.688;2024-02-04T05:47:33;32.45;;;13.73;;
69463;SDS011;56665;41.106;16.688;2024-02-04T05:50:37;29.80;;;12.87;;
69463;SDS011;56665;41.106;16.688;2024-02-04T05:53:41;36.65;;;12.45;;
69463;SDS011;56665;41.106;16.688;2024-02-04T05:56:44;30.98;;;13.00;;
69463;SDS011;56665;41.106;16.688;2024-02-04T05:59:49;29.02;;;11.95;;
69463;SDS011;56665;41.106;16.688;2024-02-04T06:02:55;30.23;;;11.15;;
69463;SDS011;56665;41.106;16.688;2024-02-04T06:06:00;19.63;;;9.63;;
69463;SDS011;56665;41.106;16.688;2024-02-04T06:09:04;18.33;;;8.73;;
69463;SDS011;56665;41.106;16.688;2024-02-04T06:12:07;18.88;;;8.55;;
69463;SDS011;56665;41.106;16.688;2024-02-04T06:15:12;17.00;;;8.15;;
69463;SDS011;56665;41.106;16.688;2024-02-04T06:18:16;17.48;;;8.18;;
69463;SDS011;56665;41.106;16.688;2024-02-04T06:21:20;18.30;;;8.33;;
69463;SDS011;56665;41.106;16.688;2024-02-04T06:24:24;19.33;;;8.65;;
69463;SDS011;56665;41.106;16.688;2024-02-04T06:27:28;18.65;;;8.23;;
69463;SDS011;56665;41.106;16.688;2024-02-04T06:30:32;16.63;;;7.82;;
69463;SDS011;56665;41.106;16.688;2024-02-04T06:33:36;17.50;;;8.40;;
69463;SDS011;56665;41.106;16.688;2024-02-04T06:36:43;14.20;;;7.50;;
69463;SDS011;56665;41.106;16.688;2024-02-04T06:39:49;15.95;;;7.97;;
69463;SDS011;56665;41.106;16.688;2024-02-04T06:42:53;20.05;;;8.88;;
69463;SDS011;56665;41.106;16.688;2024-02-04T06:45:57;15.80;;;8.77;;
69463;SDS011;56665;41.106;16.688;2024-02-04T06:49:00;16.55;;;9.23;;
69463;SDS011;56665;41.106;16.688;2024-02-04T06:52:05;17.87;;;10.07;;
69463;SDS011;56665;41.106;16.688;2024-02-04T06:55:08;24.00;;;11.35;;
69463;SDS011;56665;41.106;16.688;2024-02-04T06:58:12;24.00;;;12.43;;
69463;SDS011;56665;41.106;16.688;2024-02-04T07:01:16;34.00;;;18.80;;
69463;SDS011;56665;41.106;16.688;2024-02-04T07:04:20;41.20;;;24.73;;
69463;SDS011;56665;41.106;16.688;2024-02-04T07:07:30;43.27;;;25.13;;
69463;SDS011;56665;41.106;16.688;2024-02-04T07:10:34;34.65;;;19.48;;
69463;SDS011;56665;41.106;16.688;2024-02-04T07:13:39;30.00;;;16.58;;
69463;SDS011;56665;41.106;16.688;2024-02-04T07:16:42;22.92;;;12.73;;
69463;SDS011;56665;41.106;16.688;2024-02-04T07:19:47;23.38;;;12.60;;
69463;SDS011;56665;41.106;16.688;2024-02-04T07:22:51;27.30;;;12.80;;
69463;SDS011;56665;41.106;16.688;2024-02-04T07:25:54;21.25;;;11.27;;
69463;SDS011;56665;41.106;16.688;2024-02-04T07:28:59;20.48;;;11.40;;
69463;SDS011;56665;41.106;16.688;2024-02-04T07:32:03;19.85;;;10.40;;
69463;SDS011;56665;41.106;16.688;2024-02-04T07:35:07;21.40;;;11.32;;
69463;SDS011;56665;41.106;16.688;2024-02-04T07:38:12;20.07;;;10.80;;
69463;SDS011;56665;41.106;16.688;2024-02-04T07:41:16;18.52;;;10.80;;
69463;SDS011;56665;41.106;16.688;2024-02-04T07:44:20;18.27;;;10.55;;
69463;SDS011;56665;41.106;16.688;2024-02-04T07:47:23;18.58;;;9.98;;
69463;SDS011;56665;41.106;16.688;2024-02-04T07:50:27;18.15;;;9.90;;
69463;SDS011;56665;41.106;16.688;2024-02-04T07:53:32;16.50;;;8.97;;
69463;SDS011;56665;41.106;16.688;2024-02-04T07:56:36;13.45;;;8.75;;
69463;SDS011;56665;41.106;16.688;2024-02-04T07:59:39;14.60;;;9.23;;
69463;SDS011;56665;41.106;16.688;2024-02-04T08:02:46;14.18;;;8.18;;
69463;SDS011;56665;41.106;16.688;2024-02-04T08:05:50;13.95;;;7.80;;
69463;SDS011;56665;41.106;16.688;2024-02-04T08:08:54;14.53;;;8.83;;
69463;SDS011;56665;41.106;16.688;2024-02-04T08:11:58;18.00;;;10.95;;
69463;SDS011;56665;41.106;16.688;2024-02-04T08:15:01;15.95;;;9.60;;
69463;SDS011;56665;41.106;16.688;2024-02-04T08:18:06;16.90;;;9.50;;
69463;SDS011;56665;41.106;16.688;2024-02-04T08:21:10;16.73;;;9.52;;
69463;SDS011;56665;41.106;16.688;2024-02-04T08:24:13;16.87;;;10.87;;
69463;SDS011;56665;41.106;16.688;2024-02-04T08:27:17;18.25;;;11.20;;
69463;SDS011;56665;41.106;16.688;2024-02-04T08:30:21;18.35;;;11.77;;
69463;SDS011;56665;41.106;16.688;2024-02-04T08:33:25;19.00;;;12.80;;
69463;SDS011;56665;41.106;16.688;2024-02-04T08:36:29;19.95;;;12.52;;
69463;SDS011;56665;41.106;16.688;2024-02-04T08:39:34;20.53;;;12.63;;
69463;SDS011;56665;41.106;16.688;2024-02-04T08:42:37;21.20;;;13.40;;
69463;SDS011;56665;41.106;16.688;2024-02-04T08:45:41;33.45;;;20.58;;
69463;SDS011;56665;41.106;16.688;2024-02-04T08:48:46;41.08;;;23.48;;
69463;SDS011;56665;41.106;16.688;2024-02-04T08:51:51;41.08;;;25.02;;
69463;SDS011;56665;41.106;16.688;2024-02-04T08:54:54;53.60;;;29.17;;
69463;SDS011;56665;41.106;16.688;2024-02-04T08:57:58;57.08;;;31.13;;
69463;SDS011;56665;41.106;16.688;2024-02-04T09:01:05;52.92;;;29.40;;
69463;SDS011;56665;41.106;16.688;2024-02-04T09:04:09;56.65;;;31.02;;
69463;SDS011;56665;41.106;16.688;2024-02-04T09:07:13;55.88;;;31.95;;
69463;SDS011;56665;41.106;16.688;2024-02-04T09:10:16;64.10;;;36.97;;
69463;SDS011;56665;41.106;16.688;2024-02-04T09:13:20;68.25;;;38.63;;
69463;SDS011;56665;41.106;16.688;2024-02-04T09:16:24;62.50;;;36.00;;
69463;SDS011;56665;41.106;16.688;2024-02-04T09:19:28;69.97;;;38.67;;
69463;SDS011;56665;41.106;16.688;2024-02-04T09:22:31;75.38;;;44.00;;
69463;SDS011;56665;41.106;16.688;2024-02-04T09:25:35;82.00;;;45.30;;
69463;SDS011;56665;41.106;16.688;2024-02-04T09:28:39;82.15;;;44.92;;
69463;SDS011;56665;41.106;16.688;2024-02-04T09:31:43;96.72;;;52.35;;
69463;SDS011;56665;41.106;16.688;2024-02-04T09:34:46;97.13;;;53.28;;
69463;SDS011;56665;41.106;16.688;2024-02-04T09:37:50;88.75;;;49.33;;
69463;SDS011;56665;41.106;16.688;2024-02-04T09:40:54;87.97;;;50.80;;
69463;SDS011;56665;41.106;16.688;2024-02-04T09:43:58;69.13;;;42.35;;
69463;SDS011;56665;41.106;16.688;2024-02-04T09:47:02;60.40;;;36.92;;
69463;SDS011;56665;41.106;16.688;2024-02-04T09:50:06;58.17;;;35.58;;
69463;SDS011;56665;41.106;16.688;2024-02-04T09:53:10;50.25;;;34.05;;
69463;SDS011;56665;41.106;16.688;2024-02-04T09:56:15;58.77;;;35.10;;
69463;SDS011;56665;41.106;16.688;2024-02-04T09:59:19;49.90;;;32.42;;
69463;SDS011;56665;41.106;16.688;2024-02-04T10:02:24;47.83;;;32.08;;
69463;SDS011;56665;41.106;16.688;2024-02-04T10:05:28;44.53;;;28.92;;
69463;SDS011;56665;41.106;16.688;2024-02-04T10:08:32;43.35;;;28.50;;
69463;SDS011;56665;41.106;16.688;2024-02-04T10:11:38;47.40;;;28.70;;
69463;SDS011;56665;41.106;16.688;2024-02-04T10:14:42;47.72;;;31.00;;
69463;SDS011;56665;41.106;16.688;2024-02-04T10:17:46;50.63;;;29.70;;
69463;SDS011;56665;41.106;16.688;2024-02-04T10:20:50;52.08;;;29.63;;
69463;SDS011;56665;41.106;16.688;2024-02-04T10:23:54;42.35;;;25.75;;
69463;SDS011;56665;41.106;16.688;2024-02-04T10:26:59;37.43;;;26.00;;
69463;SDS011;56665;41.106;16.688;2024-02-04T10:30:04;39.60;;;25.33;;
69463;SDS011;56665;41.106;16.688;2024-02-04T10:33:08;38.78;;;26.55;;
69463;SDS011;56665;41.106;16.688;2024-02-04T10:36:12;37.05;;;25.00;;
69463;SDS011;56665;41.106;16.688;2024-02-04T10:39:16;34.78;;;22.38;;
69463;SDS011;56665;41.106;16.688;2024-02-04T10:42:23;35.80;;;23.80;;
69463;SDS011;56665;41.106;16.688;2024-02-04T10:45:29;34.30;;;23.90;;
69463;SDS011;56665;41.106;16.688;2024-02-04T10:48:36;35.80;;;22.95;;
69463;SDS011;56665;41.106;16.688;2024-02-04T10:51:45;31.27;;;21.92;;
69463;SDS011;56665;41.106;16.688;2024-02-04T10:54:50;36.17;;;22.98;;
69463;SDS011;56665;41.106;16.688;2024-02-04T10:57:55;36.00;;;23.33;;
69463;SDS011;56665;41.106;16.688;2024-02-04T11:00:58;33.80;;;22.33;;
69463;SDS011;56665;41.106;16.688;2024-02-04T11:04:03;31.35;;;21.25;;
69463;SDS011;56665;41.106;16.688;2024-02-04T11:07:07;34.65;;;21.67;;
69463;SDS011;56665;41.106;16.688;2024-02-04T11:10:13;32.95;;;19.98;;
69463;SDS011;56665;41.106;16.688;2024-02-04T11:13:17;28.10;;;19.80;;
69463;SDS011;56665;41.106;16.688;2024-02-04T11:19:47;27.85;;;18.67;;
69463;SDS011;56665;41.106;16.688;2024-02-04T11:23:00;29.42;;;18.55;;
69463;SDS011;56665;41.106;16.688;2024-02-04T11:26:06;27.17;;;19.30;;
69463;SDS011;56665;41.106;16.688;2024-02-04T11:29:10;26.30;;;18.93;;
69463;SDS011;56665;41.106;16.688;2024-02-04T11:32:14;27.25;;;18.50;;
69463;SDS011;56665;41.106;16.688;2024-02-04T11:35:19;29.45;;;17.70;;
69463;SDS011;56665;41.106;16.688;2024-02-04T11:38:29;28.48;;;18.67;;
69463;SDS011;56665;41.106;16.688;2024-02-04T11:41:33;31.75;;;21.40;;
69463;SDS011;56665;41.106;16.688;2024-02-04T11:44:49;30.15;;;20.02;;
69463;SDS011;56665;41.106;16.688;2024-02-04T11:47:59;27.02;;;19.23;;
69463;SDS011;56665;41.106;16.688;2024-02-04T11:51:05;31.35;;;18.75;;
69463;SDS011;56665;41.106;16.688;2024-02-04T11:54:08;29.40;;;19.00;;
69463;SDS011;56665;41.106;16.688;2024-02-04T11:57:12;37.67;;;20.73;;
69463;SDS011;56665;41.106;16.688;2024-02-04T12:00:18;32.70;;;21.20;;
69463;SDS011;56665;41.106;16.688;2024-02-04T12:03:31;36.08;;;21.33;;
69463;SDS011;56665;41.106;16.688;2024-02-04T12:06:36;31.10;;;20.58;;
69463;SDS011;56665;41.106;16.688;2024-02-04T12:09:41;34.20;;;21.98;;
69463;SDS011;56665;41.106;16.688;2024-02-04T12:12:46;34.67;;;23.50;;
69463;SDS011;56665;41.106;16.688;2024-02-04T12:15:49;33.10;;;21.00;;
69463;SDS011;56665;41.106;16.688;2024-02-04T12:18:53;36.17;;;21.90;;
69463;SDS011;56665;41.106;16.688;2024-02-04T12:21:57;37.33;;;25.48;;
69463;SDS011;56665;41.106;16.688;2024-02-04T12:25:01;35.72;;;22.73;;
69463;SDS011;56665;41.106;16.688;2024-02-04T12:28:05;34.60;;;23.83;;
69463;SDS011;56665;41.106;16.688;2024-02-04T12:34:22;31.40;;;19.00;;
69463;SDS011;56665;41.106;16.688;2024-02-04T12:37:26;27.75;;;16.45;;
69463;SDS011;56665;41.106;16.688;2024-02-04T12:40:32;26.80;;;17.55;;
69463;SDS011;56665;41.106;16.688;2024-02-04T12:43:36;24.63;;;15.30;;
69463;SDS011;56665;41.106;16.688;2024-02-04T12:46:40;25.13;;;16.10;;
69463;SDS011;56665;41.106;16.688;2024-02-04T12:49:43;26.60;;;17.30;;
69463;SDS011;56665;41.106;16.688;2024-02-04T12:52:47;28.23;;;17.83;;
69463;SDS011;56665;41.106;16.688;2024-02-04T12:55:57;25.73;;;16.77;;
69463;SDS011;56665;41.106;16.688;2024-02-04T12:59:02;28.90;;;18.52;;
69463;SDS011;56665;41.106;16.688;2024-02-04T13:02:08;26.07;;;16.57;;
69463;SDS011;56665;41.106;16.688;2024-02-04T13:05:21;28.23;;;16.92;;
69463;SDS011;56665;41.106;16.688;2024-02-04T13:08:25;26.20;;;17.08;;
69463;SDS011;56665;41.106;16.688;2024-02-04T13:11:30;26.15;;;16.77;;
69463;SDS011;56665;41.106;16.688;2024-02-04T13:14:34;26.42;;;17.25;;
69463;SDS011;56665;41.106;16.688;2024-02-04T13:17:40;25.67;;;15.00;;
69463;SDS011;56665;41.106;16.688;2024-02-04T13:20:43;24.83;;;15.45;;
69463;SDS011;56665;41.106;16.688;2024-02-04T13:23:49;23.85;;;14.73;;
69463;SDS011;56665;41.106;16.688;2024-02-04T13:26:54;33.53;;;19.80;;
69463;SDS011;56665;41.106;16.688;2024-02-04T13:29:57;44.75;;;27.45;;
69463;SDS011;56665;41.106;16.688;2024-02-04T13:33:01;34.63;;;20.90;;
69463;SDS011;56665;41.106;16.688;2024-02-04T13:36:06;21.63;;;14.57;;
69463;SDS011;56665;41.106;16.688;2024-02-04T13:39:11;18.48;;;12.77;;
69463;SDS011;56665;41.106;16.688;2024-02-04T13:42:16;20.20;;;13.20;;
69463;SDS011;56665;41.106;16.688;2024-02-04T13:45:20;24.55;;;15.13;;
69463;SDS011;56665;41.106;16.688;2024-02-04T13:48:24;38.77;;;22.53;;
69463;SDS011;56665;41.106;16.688;2024-02-04T13:51:29;34.97;;;20.65;;
69463;SDS011;56665;41.106;16.688;2024-02-04T13:54:32;42.47;;;23.45;;
69463;SDS011;56665;41.106;16.688;2024-02-04T13:57:36;25.27;;;14.95;;
69463;SDS011;56665;41.106;16.688;2024-02-04T14:00:40;17.90;;;12.35;;
69463;SDS011;56665;41.106;16.688;2024-02-04T14:03:44;20.17;;;13.47;;
69463;SDS011;56665;41.106;16.688;2024-02-04T14:06:48;23.27;;;15.32;;
69463;SDS011;56665;41.106;16.688;2024-02-04T14:09:52;24.00;;;14.95;;
69463;SDS011;56665;41.106;16.688;2024-02-04T14:12:56;21.80;;;13.40;;
69463;SDS011;56665;41.106;16.688;2024-02-04T14:16:00;22.45;;;14.02;;
69463;SDS011;56665;41.106;16.688;2024-02-04T14:19:04;19.93;;;12.77;;
69463;SDS011;56665;41.106;16.688;2024-02-04T14:22:08;22.33;;;16.08;;
69463;SDS011;56665;41.106;16.688;2024-02-04T14:25:12;20.83;;;13.18;;
69463;SDS011;56665;41.106;16.688;2024-02-04T14:28:16;17.33;;;11.57;;
69463;SDS011;56665;41.106;16.688;2024-02-04T14:31:20;20.95;;;12.57;;
69463;SDS011;56665;41.106;16.688;2024-02-04T14:34:24;19.50;;;11.97;;
69463;SDS011;56665;41.106;16.688;2024-02-04T14:37:28;19.10;;;11.90;;
69463;SDS011;56665;41.106;16.688;2024-02-04T14:40:32;17.65;;;11.60;;
69463;SDS011;56665;41.106;16.688;2024-02-04T14:43:36;19.98;;;12.85;;
69463;SDS011;56665;41.106;16.688;2024-02-04T14:46:40;19.77;;;12.30;;
69463;SDS011;56665;41.106;16.688;2024-02-04T14:49:43;17.95;;;11.50;;
69463;SDS011;56665;41.106;16.688;2024-02-04T14:52:47;23.42;;;14.23;;
69463;SDS011;56665;41.106;16.688;2024-02-04T14:55:52;17.10;;;11.32;;
69463;SDS011;56665;41.106;16.688;2024-02-04T14:58:55;15.27;;;10.75;;
69463;SDS011;56665;41.106;16.688;2024-02-04T15:01:59;15.80;;;10.43;;
69463;SDS011;56665;41.106;16.688;2024-02-04T15:05:03;14.97;;;9.70;;
69463;SDS011;56665;41.106;16.688;2024-02-04T15:08:07;14.80;;;10.27;;
69463;SDS011;56665;41.106;16.688;2024-02-04T15:11:11;16.92;;;10.35;;
69463;SDS011;56665;41.106;16.688;2024-02-04T15:14:15;19.63;;;11.07;;
69463;SDS011;56665;41.106;16.688;2024-02-04T15:17:20;17.77;;;11.30;;
69463;SDS011;56665;41.106;16.688;2024-02-04T15:20:24;20.50;;;11.30;;
69463;SDS011;56665;41.106;16.688;2024-02-04T15:23:28;16.05;;;10.73;;
69463;SDS011;56665;41.106;16.688;2024-02-04T15:26:34;19.30;;;10.40;;
69463;SDS011;56665;41.106;16.688;2024-02-04T15:29:43;22.08;;;12.70;;
69463;SDS011;56665;41.106;16.688;2024-02-04T15:32:49;21.33;;;13.68;;
69463;SDS011;56665;41.106;16.688;2024-02-04T15:35:55;20.00;;;14.20;;
69463;SDS011;56665;41.106;16.688;2024-02-04T15:38:58;21.60;;;12.75;;
69463;SDS011;56665;41.106;16.688;2024-02-04T15:42:02;21.02;;;13.73;;
69463;SDS011;56665;41.106;16.688;2024-02-04T15:45:09;24.23;;;14.85;;
69463;SDS011;56665;41.106;16.688;2024-02-04T15:48:15;18.48;;;12.32;;
69463;SDS011;56665;41.106;16.688;2024-02-04T15:51:21;20.13;;;13.13;;
69463;SDS011;56665;41.106;16.688;2024-02-04T15:54:26;19.55;;;11.77;;
69463;SDS011;56665;41.106;16.688;2024-02-04T15:57:33;23.05;;;14.52;;
69463;SDS011;56665;41.106;16.688;2024-02-04T16:00:39;28.30;;;16.73;;
69463;SDS011;56665;41.106;16.688;2024-02-04T16:03:43;27.10;;;19.20;;
69463;SDS011;56665;41.106;16.688;2024-02-04T16:06:47;23.73;;;14.70;;
69463;SDS011;56665;41.106;16.688;2024-02-04T16:09:51;19.73;;;13.30;;
69463;SDS011;56665;41.106;16.688;2024-02-04T16:12:58;21.20;;;13.50;;
69463;SDS011;56665;41.106;16.688;2024-02-04T16:16:03;26.55;;;15.82;;
69463;SDS011;56665;41.106;16.688;2024-02-04T16:19:09;27.98;;;17.77;;
69463;SDS011;56665;41.106;16.688;2024-02-04T16:22:16;31.90;;;19.10;;
69463;SDS011;56665;41.106;16.688;2024-02-04T16:25:21;33.28;;;21.70;;
69463;SDS011;56665;41.106;16.688;2024-02-04T16:28:25;36.72;;;22.13;;
69463;SDS011;56665;41.106;16.688;2024-02-04T16:31:29;38.60;;;23.27;;
69463;SDS011;56665;41.106;16.688;2024-02-04T16:34:32;43.67;;;26.85;;
69463;SDS011;56665;41.106;16.688;2024-02-04T16:37:38;40.30;;;25.30;;
69463;SDS011;56665;41.106;16.688;2024-02-04T16:40:41;35.45;;;22.00;;
69463;SDS011;56665;41.106;16.688;2024-02-04T16:43:45;30.02;;;21.10;;
69463;SDS011;56665;41.106;16.688;2024-02-04T16:46:49;30.45;;;22.20;;
69463;SDS011;56665;41.106;16.688;2024-02-04T16:49:53;39.10;;;26.02;;
69463;SDS011;56665;41.106;16.688;2024-02-04T16:52:57;43.40;;;30.27;;
69463;SDS011;56665;41.106;16.688;2024-02-04T16:56:01;36.83;;;26.17;;
69463;SDS011;56665;41.106;16.688;2024-02-04T16:59:05;40.10;;;26.20;;
69463;SDS011;56665;41.106;16.688;2024-02-04T17:02:10;37.72;;;25.35;;
69463;SDS011;56665;41.106;16.688;2024-02-04T17:05:14;35.40;;;23.52;;
69463;SDS011;56665;41.106;16.688;2024-02-04T17:08:17;40.30;;;27.07;;
69463;SDS011;56665;41.106;16.688;2024-02-04T17:11:21;39.80;;;25.30;;
69463;SDS011;56665;41.106;16.688;2024-02-04T17:14:27;49.28;;;31.17;;
69463;SDS011;56665;41.106;16.688;2024-02-04T17:17:31;50.85;;;32.05;;
69463;SDS011;56665;41.106;16.688;2024-02-04T17:20:58;51.70;;;29.50;;
69463;SDS011;56665;41.106;16.688;2024-02-04T17:24:04;48.60;;;26.73;;
69463;SDS011;56665;41.106;16.688;2024-02-04T17:27:17;59.40;;;29.05;;
69463;SDS011;56665;41.106;16.688;2024-02-04T17:30:22;72.15;;;36.47;;
69463;SDS011;56665;41.106;16.688;2024-02-04T17:33:26;77.10;;;38.45;;
69463;SDS011;56665;41.106;16.688;2024-02-04T17:36:29;62.45;;;31.92;;
69463;SDS011;56665;41.106;16.688;2024-02-04T17:39:33;58.67;;;29.23;;
69463;SDS011;56665;41.106;16.688;2024-02-04T17:42:38;59.58;;;27.63;;
69463;SDS011;56665;41.106;16.688;2024-02-04T17:45:44;48.35;;;25.30;;
69463;SDS011;56665;41.106;16.688;2024-02-04T17:48:48;55.92;;;29.02;;
69463;SDS011;56665;41.106;16.688;2024-02-04T17:51:52;54.75;;;29.08;;
69463;SDS011;56665;41.106;16.688;2024-02-04T17:54:55;56.70;;;30.53;;
69463;SDS011;56665;41.106;16.688;2024-02-04T17:58:01;53.10;;;27.90;;
69463;SDS011;56665;41.106;16.688;2024-02-04T18:01:06;58.03;;;30.30;;